createdAt,value
2023-01-21T00:00:56.257Z,89.94
2023-01-21T00:03:30.053Z,90.00
2023-01-21T00:06:02.742Z,89.99
2023-01-21T00:08:37.325Z,90.00
2023-01-21T00:11:11.725Z,89.92
2023-01-21T00:13:46.066Z,89.81
2023-01-21T00:16:18.773Z,89.65
2023-01-21T00:18:51.833Z,89.61
2023-01-21T00:21:25.506Z,89.56
2023-01-21T00:23:58.643Z,89.84
2023-01-21T00:26:31.843Z,90.00
2023-01-21T00:29:05.346Z,89.30
2023-01-21T00:31:38.201Z,89.58
2023-01-21T00:34:12.160Z,89.69
2023-01-21T00:36:45.975Z,89.74
2023-01-21T00:39:19.338Z,89.49
2023-01-21T00:41:52.984Z,89.77
2023-01-21T00:44:26.036Z,89.68
2023-01-21T00:46:59.121Z,89.49
2023-01-21T00:49:31.790Z,89.78
2023-01-21T00:52:04.998Z,89.77
2023-01-21T00:54:37.650Z,89.94
2023-01-21T00:57:10.307Z,89.85
2023-01-21T00:59:43.057Z,90.05
2023-01-21T01:02:17.502Z,89.75
2023-01-21T01:04:50.396Z,89.83
2023-01-21T01:07:23.400Z,89.83
2023-01-21T01:09:56.201Z,89.90
2023-01-21T01:12:29.920Z,89.92
2023-01-21T01:15:03.068Z,90.17
2023-01-21T01:17:36.872Z,90.00
2023-01-21T01:20:13.060Z,89.79
2023-01-21T01:22:47.164Z,89.97
2023-01-21T01:25:20.961Z,90.25
2023-01-21T01:27:53.992Z,90.03
2023-01-21T01:30:26.824Z,89.82
2023-01-21T01:32:59.982Z,89.99
2023-01-21T01:35:34.222Z,89.87
2023-01-21T01:38:11.030Z,90.04
2023-01-21T01:40:45.530Z,90.02
2023-01-21T01:43:22.003Z,90.07
2023-01-21T01:45:56.943Z,90.06
2023-01-21T01:48:33.087Z,89.99
2023-01-21T01:51:07.766Z,90.39
2023-01-21T01:53:45.725Z,89.96
2023-01-21T01:56:19.173Z,90.01
2023-01-21T01:58:54.468Z,90.13
2023-01-21T02:01:28.443Z,90.02
2023-01-21T02:04:04.831Z,89.94
2023-01-21T02:06:38.966Z,89.74
2023-01-21T02:09:11.941Z,89.75
2023-01-21T02:11:46.392Z,89.92
2023-01-21T02:14:19.932Z,89.80
2023-01-21T02:17:09.281Z,89.87
2023-01-21T02:20:15.721Z,89.95
2023-01-21T02:23:00.144Z,89.82
2023-01-21T02:26:07.998Z,90.04
2023-01-21T02:29:00.138Z,89.94
2023-01-21T02:32:11.001Z,90.00
2023-01-21T02:34:50.158Z,89.70
2023-01-21T02:37:29.699Z,89.81
2023-01-21T02:40:17.023Z,89.80
2023-01-21T02:42:52.457Z,89.54
2023-01-21T02:45:31.597Z,89.73
2023-01-21T02:48:14.213Z,89.27
2023-01-21T02:50:51.303Z,89.08
2023-01-21T02:53:28.986Z,89.21
2023-01-21T02:56:07.386Z,88.91
2023-01-21T02:58:42.858Z,88.93
2023-01-21T03:01:26.202Z,88.64
2023-01-21T03:04:16.598Z,88.57
2023-01-21T03:07:01.470Z,88.36
2023-01-21T03:09:36.499Z,88.25
2023-01-21T03:12:27.260Z,87.92
2023-01-21T03:15:23.949Z,88.13
2023-01-21T03:18:02.449Z,87.92
2023-01-21T03:20:40.691Z,87.28
2023-01-21T03:23:18.073Z,87.26
2023-01-21T03:25:52.504Z,87.27
2023-01-21T03:28:31.270Z,87.04
2023-01-21T03:31:09.297Z,86.64
2023-01-21T03:33:50.827Z,86.23
2023-01-21T03:36:28.364Z,86.56
2023-01-21T03:39:04.232Z,86.40
2023-01-21T03:41:40.630Z,86.13
2023-01-21T03:44:13.737Z,85.78
2023-01-21T03:46:53.217Z,85.48
2023-01-21T03:49:33.004Z,85.18
2023-01-21T03:52:07.858Z,85.01
2023-01-21T03:54:41.603Z,84.69
2023-01-21T03:57:14.289Z,84.45
2023-01-21T03:59:47.575Z,84.66
2023-01-21T04:02:21.281Z,84.34
2023-01-21T04:04:55.601Z,84.24
2023-01-21T04:07:28.869Z,84.59
2023-01-21T04:10:02.287Z,84.35
2023-01-21T04:12:36.403Z,84.44
2023-01-21T04:15:11.569Z,84.31
2023-01-21T04:17:44.469Z,83.61
2023-01-21T04:20:17.833Z,83.54
2023-01-21T04:22:50.723Z,83.09
2023-01-21T04:25:24.207Z,83.02
2023-01-21T04:27:56.795Z,83.37
2023-01-21T04:30:29.446Z,83.07
2023-01-21T04:33:02.101Z,83.70
2023-01-21T04:35:35.803Z,83.62
2023-01-21T04:38:08.945Z,82.97
2023-01-21T04:40:43.177Z,82.62
2023-01-21T04:43:15.783Z,82.87
2023-01-21T04:45:50.257Z,82.81
2023-01-21T04:48:23.384Z,82.94
2023-01-21T04:50:57.221Z,82.80
2023-01-21T04:53:30.448Z,82.68
2023-01-21T04:56:03.286Z,82.09
2023-01-21T04:58:36.050Z,82.94
2023-01-21T05:01:09.035Z,82.88
2023-01-21T05:03:41.709Z,82.82
2023-01-21T05:06:15.505Z,82.89
2023-01-21T05:08:48.815Z,83.09
2023-01-21T05:11:22.768Z,83.21
2023-01-21T05:13:55.399Z,83.47
2023-01-21T05:16:28.728Z,83.40
2023-01-21T05:19:01.689Z,82.92
2023-01-21T05:21:35.321Z,83.11
2023-01-21T05:24:09.030Z,83.20
2023-01-21T05:26:42.078Z,83.16
2023-01-21T05:29:15.122Z,82.99
2023-01-21T05:31:48.223Z,82.98
2023-01-21T05:34:21.633Z,83.27
2023-01-21T05:36:54.497Z,83.07
2023-01-21T05:39:27.389Z,82.95
2023-01-21T05:42:00.943Z,82.69
2023-01-21T05:44:33.801Z,82.91
2023-01-21T05:47:07.679Z,82.90
2023-01-21T05:49:40.804Z,82.95
2023-01-21T05:52:13.593Z,82.55
2023-01-21T05:55:00.951Z,82.67
2023-01-21T05:57:35.762Z,82.88
2023-01-21T06:00:10.952Z,82.74
2023-01-21T06:02:43.795Z,82.89
2023-01-21T06:05:17.947Z,83.01
2023-01-21T06:07:51.678Z,82.89
2023-01-21T06:10:24.294Z,82.77
2023-01-21T06:12:57.590Z,82.54
2023-01-21T06:15:33.312Z,83.15
2023-01-21T06:18:06.029Z,83.09
2023-01-21T06:20:39.524Z,83.80
2023-01-21T06:23:14.402Z,84.34
2023-01-21T06:25:48.164Z,85.65
2023-01-21T06:28:21.403Z,86.66
2023-01-21T06:30:54.116Z,88.42
2023-01-21T06:33:26.907Z,89.61
2023-01-21T06:35:59.998Z,91.13
2023-01-21T06:38:36.081Z,91.96
2023-01-21T06:41:09.410Z,92.16
2023-01-21T06:43:43.144Z,92.95
2023-01-21T06:46:15.883Z,93.19
2023-01-21T06:48:48.814Z,93.57
2023-01-21T06:51:21.470Z,93.34
2023-01-21T06:53:54.953Z,93.67
2023-01-21T06:56:28.158Z,93.68
2023-01-21T06:59:01.835Z,94.12
2023-01-21T07:01:34.480Z,93.62
2023-01-21T07:04:08.453Z,93.89
2023-01-21T07:06:42.365Z,94.16
2023-01-21T07:09:15.430Z,94.20
2023-01-21T07:11:48.047Z,94.60
2023-01-21T07:14:21.528Z,94.29
2023-01-21T07:16:54.632Z,94.33
2023-01-21T07:19:28.102Z,95.36
2023-01-21T07:22:01.173Z,95.88
2023-01-21T07:24:34.392Z,96.02
2023-01-21T07:27:07.458Z,96.16
2023-01-21T07:29:40.778Z,96.79
2023-01-21T07:32:13.901Z,96.90
2023-01-21T07:34:48.192Z,97.39
2023-01-21T07:37:20.869Z,97.82
2023-01-21T07:39:55.973Z,98.08
2023-01-21T07:42:29.474Z,98.11
2023-01-21T07:45:04.041Z,98.21
2023-01-21T07:47:37.196Z,98.16
2023-01-21T07:50:13.550Z,98.75
2023-01-21T07:52:48.255Z,98.89
2023-01-21T07:55:21.551Z,99.64
2023-01-21T07:57:56.848Z,99.89
2023-01-21T08:00:30.405Z,100.00
2023-01-21T08:03:05.410Z,100.00
2023-01-21T08:05:39.839Z,100.00
2023-01-21T08:08:14.538Z,100.00
2023-01-21T08:10:54.813Z,100.00
2023-01-21T08:13:28.793Z,100.00
2023-01-21T08:16:03.235Z,100.00
2023-01-21T08:18:36.915Z,100.00
2023-01-21T08:21:10.611Z,100.00
2023-01-21T08:23:43.624Z,100.00
2023-01-21T08:26:18.114Z,100.00
2023-01-21T08:28:51.260Z,100.00
2023-01-21T08:31:24.728Z,100.00
2023-01-21T08:33:59.614Z,100.00
2023-01-21T08:36:33.726Z,100.00
2023-01-21T08:39:07.801Z,100.00
2023-01-21T08:41:42.029Z,100.00
2023-01-21T08:44:16.470Z,100.00
2023-01-21T08:46:49.863Z,100.00
2023-01-21T08:49:24.253Z,100.00
2023-01-21T08:51:58.003Z,100.00
2023-01-21T08:54:34.665Z,100.00
2023-01-21T08:57:09.934Z,100.00
2023-01-21T08:59:45.524Z,100.00
2023-01-21T09:02:21.324Z,100.00
2023-01-21T09:04:55.626Z,100.00
2023-01-21T09:07:31.809Z,100.00
2023-01-21T09:10:06.724Z,100.00
2023-01-21T09:12:45.786Z,100.00
2023-01-21T09:15:20.686Z,100.00
2023-01-21T09:17:54.642Z,100.00
2023-01-21T09:20:30.334Z,100.00
2023-01-21T09:23:24.408Z,100.00
2023-01-21T09:26:04.269Z,100.00
2023-01-21T09:28:42.629Z,100.00
2023-01-21T09:31:18.857Z,100.00
2023-01-21T09:33:55.815Z,100.00
2023-01-21T09:36:35.683Z,100.00
2023-01-21T09:39:11.086Z,100.00
2023-01-21T09:41:48.041Z,100.00
2023-01-21T09:44:31.443Z,100.00
2023-01-21T09:47:11.220Z,100.00
2023-01-21T09:49:51.960Z,100.00
2023-01-21T09:52:33.615Z,100.00
2023-01-21T09:55:16.668Z,100.00
2023-01-21T09:58:25.412Z,100.00
2023-01-21T10:01:05.665Z,100.00
2023-01-21T10:03:47.140Z,100.00
2023-01-21T10:06:49.603Z,100.00
2023-01-21T10:09:49.254Z,100.00
2023-01-21T10:12:36.873Z,100.00
2023-01-21T10:15:39.993Z,100.00
2023-01-21T10:18:18.447Z,100.00
2023-01-21T10:20:58.972Z,100.00
2023-01-21T10:23:42.714Z,100.00
2023-01-21T10:26:18.638Z,100.00
2023-01-21T10:28:57.338Z,100.00
2023-01-21T10:31:37.575Z,100.00
2023-01-21T10:34:17.023Z,100.00
2023-01-21T10:37:08.677Z,100.00
2023-01-21T10:39:54.429Z,100.00
2023-01-21T10:43:03.460Z,100.00
2023-01-21T10:45:49.942Z,100.00
2023-01-21T10:48:34.037Z,100.00
2023-01-21T10:51:18.903Z,100.00
2023-01-21T10:54:01.398Z,100.00
2023-01-21T10:56:51.972Z,100.00
2023-01-21T10:59:32.226Z,100.00
2023-01-21T11:02:22.512Z,100.00
2023-01-21T11:04:58.326Z,100.00
2023-01-21T11:07:39.197Z,100.00
2023-01-21T11:10:20.475Z,100.00
2023-01-21T11:12:57.517Z,100.00
2023-01-21T11:15:37.039Z,100.00
2023-01-21T11:18:30.705Z,100.00
2023-01-21T11:21:18.392Z,100.00
2023-01-21T11:23:59.862Z,100.00
2023-01-21T11:26:38.979Z,100.00
2023-01-21T11:29:18.288Z,100.00
2023-01-21T11:32:01.864Z,100.00
2023-01-21T11:34:36.827Z,100.00
2023-01-21T11:37:20.068Z,100.00
2023-01-21T11:39:57.348Z,100.00
2023-01-21T11:42:30.782Z,100.00
2023-01-21T11:45:06.244Z,100.00
2023-01-21T11:47:48.745Z,100.00
2023-01-21T11:50:28.825Z,100.00
2023-01-21T11:53:17.510Z,100.00
2023-01-21T11:55:57.254Z,100.00
2023-01-21T11:58:33.576Z,100.00
2023-01-21T12:01:09.042Z,100.00
2023-01-21T12:03:49.737Z,100.00
2023-01-21T12:06:24.848Z,100.00
2023-01-21T12:09:02.194Z,100.00
2023-01-21T12:11:35.211Z,100.00
2023-01-21T12:14:19.030Z,100.00
2023-01-21T12:17:07.278Z,100.00
2023-01-21T12:19:53.755Z,100.00
2023-01-21T12:22:45.198Z,100.00
2023-01-21T12:25:26.171Z,100.00
2023-01-21T12:28:17.294Z,100.00
2023-01-21T12:31:00.293Z,100.00
2023-01-21T12:33:48.406Z,100.00
2023-01-21T12:36:28.534Z,100.00
2023-01-21T12:39:15.051Z,100.00
2023-01-21T12:41:53.093Z,100.00
2023-01-21T12:44:34.305Z,100.00
2023-01-21T12:47:12.421Z,100.00
2023-01-21T12:50:05.108Z,100.00
2023-01-21T12:52:46.362Z,100.00
2023-01-21T12:55:26.005Z,100.00
2023-01-21T12:58:04.333Z,100.00
2023-01-21T13:00:40.178Z,100.00
2023-01-21T13:03:26.394Z,100.00
2023-01-21T13:06:04.581Z,100.00
2023-01-21T13:09:00.628Z,100.00
2023-01-21T13:11:38.328Z,100.00
2023-01-21T13:14:29.934Z,100.00
2023-01-21T13:17:05.564Z,100.00
2023-01-21T13:19:38.647Z,100.00
2023-01-21T13:22:27.191Z,100.00
2023-01-21T13:25:09.861Z,100.00
2023-01-21T13:27:49.201Z,100.00
2023-01-21T13:30:30.763Z,100.00
2023-01-21T13:33:18.926Z,100.00
2023-01-21T13:35:58.397Z,100.00
2023-01-21T13:38:39.240Z,100.00
2023-01-21T13:41:26.507Z,100.00
2023-01-21T13:44:32.072Z,100.00
2023-01-21T13:47:17.310Z,100.00
2023-01-21T13:50:19.716Z,100.00
2023-01-21T13:53:35.461Z,100.00
2023-01-21T13:56:27.383Z,100.00
2023-01-21T13:59:04.890Z,100.00
2023-01-21T14:01:46.459Z,100.00
2023-01-21T14:04:27.671Z,100.00
2023-01-21T14:07:11.032Z,100.00
2023-01-21T14:09:51.688Z,100.00
2023-01-21T14:12:42.741Z,100.00
2023-01-21T14:15:31.093Z,100.00
2023-01-21T14:18:27.424Z,100.00
2023-01-21T14:21:26.184Z,100.00
2023-01-21T14:24:10.135Z,100.00
2023-01-21T14:26:59.953Z,100.00
2023-01-21T14:29:41.400Z,100.00
2023-01-21T14:32:23.582Z,100.00
2023-01-21T14:35:10.167Z,100.00
2023-01-21T14:37:51.993Z,100.00
2023-01-21T14:40:33.297Z,100.00
2023-01-21T14:43:21.224Z,100.00
2023-01-21T14:45:59.014Z,100.00
2023-01-21T14:48:37.883Z,100.00
2023-01-21T14:51:22.798Z,100.00
2023-01-21T14:54:04.374Z,100.00
2023-01-21T14:56:42.318Z,100.00
2023-01-21T14:59:35.421Z,100.00
2023-01-21T15:02:27.950Z,100.00
2023-01-21T15:05:06.976Z,100.00
2023-01-21T15:07:45.122Z,100.00
2023-01-21T15:10:28.804Z,100.00
2023-01-21T15:13:07.427Z,100.00
2023-01-21T15:16:09.096Z,100.00
2023-01-21T15:18:48.513Z,100.00
2023-01-21T15:21:44.736Z,100.00
2023-01-21T15:24:28.227Z,100.00
2023-01-21T15:27:17.073Z,100.00
2023-01-21T15:30:54.080Z,100.00
2023-01-21T15:33:33.592Z,100.00
2023-01-21T15:36:22.761Z,100.00
2023-01-21T15:39:05.318Z,100.00
2023-01-21T15:41:56.335Z,100.00
2023-01-21T15:44:51.366Z,100.00
2023-01-21T15:47:49.793Z,100.00
2023-01-21T15:50:31.690Z,100.00
2023-01-21T15:53:22.603Z,100.00
2023-01-21T15:56:22.262Z,100.00
2023-01-21T15:59:10.267Z,100.00
2023-01-21T16:01:45.507Z,100.00
2023-01-21T16:04:37.163Z,100.00
2023-01-21T16:07:23.218Z,100.00
2023-01-21T16:10:10.706Z,100.00
2023-01-21T16:12:56.259Z,100.00
2023-01-21T16:15:42.674Z,100.00
2023-01-21T16:18:29.961Z,100.00
2023-01-21T16:21:07.745Z,100.00
2023-01-21T16:23:45.506Z,100.00
2023-01-21T16:26:32.844Z,100.00
2023-01-21T16:29:15.214Z,100.00
2023-01-21T16:31:55.431Z,100.00
2023-01-21T16:34:45.009Z,100.00
2023-01-21T16:37:21.918Z,100.00
2023-01-21T16:40:20.491Z,100.00
2023-01-21T16:43:17.816Z,100.00
2023-01-21T16:45:57.103Z,100.00
2023-01-21T16:48:35.852Z,100.00
2023-01-21T16:51:18.492Z,100.00
2023-01-21T16:53:53.426Z,100.00
2023-01-21T16:56:31.567Z,100.00
2023-01-21T16:59:21.174Z,100.00
2023-01-21T17:01:57.943Z,100.00
2023-01-21T17:04:33.421Z,100.00
2023-01-21T17:07:09.768Z,100.00
2023-01-21T17:09:46.973Z,100.00
2023-01-21T17:12:28.324Z,100.00
2023-01-21T17:15:11.162Z,100.00
2023-01-21T17:17:48.473Z,100.00
2023-01-21T17:20:43.796Z,100.00
2023-01-21T17:23:23.906Z,100.00
2023-01-21T17:26:03.576Z,100.00
2023-01-21T17:28:47.770Z,100.00
2023-01-21T17:31:33.477Z,100.00
2023-01-21T17:34:24.253Z,100.00
2023-01-21T17:37:01.602Z,100.00
2023-01-21T17:40:02.592Z,100.00
2023-01-21T17:42:43.010Z,100.00
2023-01-21T17:45:28.122Z,100.00
2023-01-21T17:48:10.959Z,100.00
2023-01-21T17:50:51.247Z,100.00
2023-01-21T17:53:32.967Z,100.00
2023-01-21T17:56:09.651Z,100.00
2023-01-21T17:59:03.706Z,100.00
2023-01-21T18:01:40.293Z,100.00
2023-01-21T18:04:24.472Z,100.00
2023-01-21T18:07:01.518Z,100.00
2023-01-21T18:09:39.240Z,100.00
2023-01-21T18:12:15.264Z,100.00
2023-01-21T18:14:49.460Z,100.00
2023-01-21T18:17:26.313Z,100.00
2023-01-21T18:20:01.125Z,100.00
2023-01-21T18:22:38.519Z,100.00
2023-01-21T18:25:18.186Z,100.00
2023-01-21T18:27:56.100Z,100.00
2023-01-21T18:30:32.130Z,100.00
2023-01-21T18:33:08.449Z,100.00
2023-01-21T18:35:47.574Z,100.00
2023-01-21T18:38:33.562Z,100.00
2023-01-21T18:41:09.585Z,100.00
2023-01-21T18:43:45.294Z,100.00
2023-01-21T18:46:20.873Z,100.00
2023-01-21T18:48:56.489Z,100.00
2023-01-21T18:51:33.539Z,100.00
2023-01-21T18:54:11.315Z,100.00
2023-01-21T18:56:47.862Z,100.00
2023-01-21T18:59:23.563Z,100.00
2023-01-21T19:01:58.021Z,100.00
2023-01-21T19:04:33.000Z,100.00
2023-01-21T19:07:10.481Z,100.00
2023-01-21T19:09:48.079Z,100.00
2023-01-21T19:12:26.671Z,100.00
2023-01-21T19:15:02.688Z,100.00
2023-01-21T19:17:40.469Z,100.00
2023-01-21T19:20:28.171Z,100.00
2023-01-21T19:23:01.860Z,100.00
2023-01-21T19:25:41.951Z,100.00
2023-01-21T19:28:17.255Z,100.00
2023-01-21T19:30:55.852Z,100.00
2023-01-21T19:33:31.070Z,100.00
2023-01-21T19:36:15.508Z,100.00
2023-01-21T19:38:55.401Z,100.00
2023-01-21T19:41:34.518Z,100.00
2023-01-21T19:44:12.936Z,100.00
2023-01-21T19:46:48.175Z,100.00
2023-01-21T19:49:23.994Z,100.00
2023-01-21T19:51:58.796Z,100.00
2023-01-21T19:54:34.178Z,100.00
2023-01-21T19:57:11.678Z,100.00
2023-01-21T19:59:49.868Z,100.00
2023-01-21T20:02:29.208Z,100.00
2023-01-21T20:05:03.433Z,100.00
2023-01-21T20:07:40.289Z,100.00
2023-01-21T20:10:35.540Z,100.00
2023-01-21T20:13:13.495Z,100.00
2023-01-21T20:15:53.619Z,100.00
2023-01-21T20:18:29.985Z,100.00
2023-01-21T20:21:08.080Z,100.00
2023-01-21T20:23:41.360Z,100.00
2023-01-21T20:26:23.638Z,100.00
2023-01-21T20:29:01.730Z,100.00
2023-01-21T20:31:36.788Z,100.00
2023-01-21T20:34:14.442Z,100.00
2023-01-21T20:36:51.129Z,100.00
2023-01-21T20:39:25.831Z,100.00
2023-01-21T20:42:04.414Z,100.00
2023-01-21T20:44:41.017Z,100.00
2023-01-21T20:47:37.687Z,100.00
2023-01-21T20:50:22.482Z,100.00
2023-01-21T20:52:58.526Z,100.00
2023-01-21T20:55:33.096Z,100.00
2023-01-21T20:58:09.005Z,100.00
2023-01-21T21:00:46.765Z,100.00
2023-01-21T21:03:20.997Z,100.00
2023-01-21T21:05:57.708Z,100.00
2023-01-21T21:08:34.203Z,100.00
2023-01-21T21:11:09.907Z,100.00
2023-01-21T21:13:47.256Z,100.00
2023-01-21T21:16:43.062Z,100.00
2023-01-21T21:19:23.106Z,100.00
2023-01-21T21:21:59.020Z,100.00
2023-01-21T21:24:34.164Z,100.00
2023-01-21T21:27:12.078Z,100.00
2023-01-21T21:29:48.091Z,100.00
2023-01-21T21:32:22.834Z,100.00
2023-01-21T21:35:00.264Z,100.00
2023-01-21T21:37:35.611Z,100.00
2023-01-21T21:40:24.793Z,100.00
2023-01-21T21:43:17.788Z,100.00
2023-01-21T21:46:09.219Z,100.00
2023-01-21T21:48:45.728Z,100.00
2023-01-21T21:51:22.074Z,100.00
2023-01-21T21:53:58.083Z,100.00
2023-01-21T21:56:34.103Z,100.00
2023-01-21T21:59:10.504Z,100.00
2023-01-21T22:01:45.550Z,100.00
2023-01-21T22:04:21.340Z,100.00
2023-01-21T22:06:54.852Z,100.00
2023-01-21T22:09:31.733Z,100.00
2023-01-21T22:12:08.233Z,100.00
2023-01-21T22:14:43.960Z,100.00
2023-01-21T22:17:18.898Z,100.00
2023-01-21T22:19:52.723Z,100.00
2023-01-21T22:22:27.031Z,100.00
2023-01-21T22:25:00.540Z,100.00
2023-01-21T22:27:40.527Z,100.00
2023-01-21T22:30:25.814Z,100.00
2023-01-21T22:33:00.513Z,100.00
2023-01-21T22:35:35.932Z,100.00
2023-01-21T22:38:10.247Z,100.00
2023-01-21T22:40:47.634Z,100.00
2023-01-21T22:43:23.544Z,100.00
2023-01-21T22:46:02.307Z,100.00
2023-01-21T22:48:38.530Z,100.00
2023-01-21T22:51:17.604Z,100.00
2023-01-21T22:53:54.518Z,100.00
2023-01-21T22:56:50.340Z,100.00
2023-01-21T22:59:25.100Z,100.00
2023-01-21T23:02:04.010Z,100.00
2023-01-21T23:04:38.539Z,100.00
2023-01-21T23:07:16.298Z,100.00
2023-01-21T23:09:48.989Z,100.00
2023-01-21T23:12:23.429Z,100.00
2023-01-21T23:14:58.550Z,100.00
2023-01-21T23:17:34.860Z,100.00
2023-01-21T23:20:13.961Z,100.00
2023-01-21T23:22:48.511Z,100.00
2023-01-21T23:25:24.374Z,100.00
2023-01-21T23:27:58.292Z,100.00
2023-01-21T23:30:32.973Z,100.00
2023-01-21T23:33:07.095Z,100.00
2023-01-21T23:35:43.123Z,100.00
2023-01-21T23:38:17.220Z,100.00
2023-01-21T23:40:51.503Z,100.00
2023-01-21T23:43:28.333Z,100.00
2023-01-21T23:46:02.697Z,100.00
2023-01-21T23:48:37.921Z,100.00
2023-01-21T23:51:14.799Z,100.00
2023-01-21T23:53:50.852Z,100.00
2023-01-21T23:56:26.229Z,100.00
2023-01-21T23:59:00.477Z,100.00
